Time;durP1;ratioP1;P1;durP2;ratioP2;P2;SDS_P1;SDS_P2;PMS_P1;PMS_P2;Temp;Humidity;BMP_temperature;BMP_pressure;BME280_temperature;BME280_humidity;BME280_pressure;Samples;Min_cycle;Max_cycle;Signal;HPM_P1;HPM_P2
2022/09/21 00:00:33;;;;;;;5.35;1.50;;;13.60;73.50;;;;;;5114929;28;20016;-64
2022/09/21 00:02:59;;;;;;;6.00;1.88;;;13.50;72.90;;;;;;5114900;28;20042;-65
2022/09/21 00:05:25;;;;;;;6.07;1.95;;;13.50;72.90;;;;;;5115032;28;20114;-64
2022/09/21 00:07:51;;;;;;;5.80;1.73;;;13.50;73.00;;;;;;5112257;28;20528;-65
2022/09/21 00:10:19;;;;;;;6.70;2.08;;;13.50;73.10;;;;;;5114983;28;20035;-64
2022/09/21 00:12:47;;;;;;;5.65;1.77;;;13.50;73.20;;;;;;5114821;28;20028;-65
2022/09/21 00:15:16;;;;;;;4.97;1.83;;;13.40;73.20;;;;;;5113977;28;20105;-64
2022/09/21 00:17:43;;;;;;;5.85;2.17;;;13.50;73.30;;;;;;5113713;28;20119;-64
2022/09/21 00:20:08;;;;;;;5.30;1.52;;;13.50;73.30;;;;;;5113791;28;20471;-64
2022/09/21 00:22:34;;;;;;;7.93;1.98;;;13.40;73.30;;;;;;5114669;28;20023;-65
2022/09/21 00:25:03;;;;;;;5.55;1.73;;;13.50;73.40;;;;;;5112827;28;20028;-65
2022/09/21 00:27:30;;;;;;;5.95;1.80;;;13.40;73.30;;;;;;5113845;28;20038;-65
2022/09/21 00:29:57;;;;;;;5.80;2.47;;;13.40;73.40;;;;;;5111622;28;20028;-65
2022/09/21 00:32:26;;;;;;;6.70;2.00;;;13.40;73.40;;;;;;5114073;28;20024;-65
2022/09/21 00:34:52;;;;;;;5.53;2.03;;;13.40;73.50;;;;;;5105980;28;20152;-65
2022/09/21 00:37:19;;;;;;;8.70;2.35;;;13.40;73.50;;;;;;5115768;28;20492;-65
2022/09/21 00:39:45;;;;;;;7.22;2.58;;;13.40;73.50;;;;;;5122203;27;20034;-64
2022/09/21 00:42:20;;;;;;;8.20;2.67;;;13.40;73.60;;;;;;5117719;27;20023;-65
2022/09/21 00:44:46;;;;;;;7.38;2.35;;;13.40;73.60;;;;;;5118604;28;20039;-65
2022/09/21 00:47:19;;;;;;;8.23;2.70;;;13.30;73.60;;;;;;5118139;28;20019;-64
2022/09/21 00:49:48;;;;;;;7.40;2.47;;;13.30;73.70;;;;;;5118370;28;20368;-64
2022/09/21 00:52:16;;;;;;;7.78;2.40;;;13.30;73.80;;;;;;5119981;27;20015;-64
2022/09/21 00:54:59;;;;;;;8.63;2.42;;;13.30;73.80;;;;;;5119372;27;20042;-64
2022/09/21 00:57:29;;;;;;;7.15;2.17;;;13.30;73.90;;;;;;5117143;28;20031;-65
2022/09/21 01:00:00;;;;;;;4.80;1.80;;;13.20;73.80;;;;;;5134432;27;20031;-65
2022/09/21 01:02:27;;;;;;;5.60;1.92;;;13.20;73.90;;;;;;5117426;28;20028;-64
2022/09/21 01:04:53;;;;;;;8.20;1.90;;;13.20;73.90;;;;;;5118140;28;20081;-65
2022/09/21 01:07:23;;;;;;;5.18;2.08;;;13.20;74.00;;;;;;5116781;27;20031;-64
2022/09/21 01:09:53;;;;;;;5.85;1.98;;;13.20;74.10;;;;;;5117801;28;20031;-65
2022/09/21 01:12:40;;;;;;;6.53;2.10;;;13.20;74.10;;;;;;5116435;27;20465;-65
2022/09/21 01:15:12;;;;;;;4.97;1.83;;;13.10;74.10;;;;;;5104884;28;20131;-64
2022/09/21 01:17:45;;;;;;;4.93;1.75;;;13.10;74.10;;;;;;5117659;28;20032;-64
2022/09/21 01:20:27;;;;;;;5.35;1.77;;;13.10;74.20;;;;;;5117183;28;20110;-64
2022/09/21 01:22:52;;;;;;;;;;;13.10;74.20;;;;;;5117340;27;20031;-64
2022/09/21 01:25:37;;;;;;;5.75;1.58;;;13.00;74.10;;;;;;5115452;28;19908;-65
2022/09/21 01:28:22;;;;;;;4.88;1.75;;;13.00;74.20;;;;;;5104475;28;20141;-65
2022/09/21 01:30:51;;;;;;;5.18;1.50;;;13.00;74.20;;;;;;5116636;28;20032;-64
2022/09/21 01:33:26;;;;;;;4.78;1.50;;;12.90;74.20;;;;;;5116854;27;20073;-64
2022/09/21 01:36:00;;;;;;;3.38;1.50;;;12.90;74.20;;;;;;5117205;28;20444;-64
2022/09/21 01:38:36;;;;;;;4.47;1.65;;;13.00;74.40;;;;;;5117220;28;20019;-64
2022/09/21 01:41:06;;;;;;;5.43;1.60;;;12.90;74.30;;;;;;5116736;27;20034;-64
2022/09/21 01:43:44;;;;;;;4.63;1.73;;;12.90;74.40;;;;;;5120717;27;20031;-64
2022/09/21 01:46:19;;;;;;;6.47;1.83;;;12.90;74.40;;;;;;5117951;27;20037;-64
2022/09/21 01:48:49;;;;;;;5.53;1.77;;;12.90;74.40;;;;;;5116182;28;20027;-64
2022/09/21 01:51:16;;;;;;;6.05;1.83;;;12.90;74.50;;;;;;5115262;28;20032;-64
2022/09/21 01:53:54;;;;;;;4.90;1.58;;;12.90;74.50;;;;;;5116121;28;20452;-64
2022/09/21 01:56:25;;;;;;;4.97;1.58;;;12.90;74.60;;;;;;5117218;28;20043;-65
2022/09/21 01:59:20;;;;;;;7.18;1.70;;;12.90;74.60;;;;;;5114880;28;20106;-64
2022/09/21 02:01:52;;;;;;;4.93;1.88;;;12.80;74.60;;;;;;5115859;28;20047;-65
2022/09/21 02:04:18;;;;;;;;;;;12.80;74.60;;;;;;5116034;28;20402;-65
2022/09/21 02:06:46;;;;;;;6.80;1.88;;;12.80;74.60;;;;;;5114759;28;19908;-65
2022/09/21 02:09:13;;;;;;;5.38;1.90;;;12.70;74.60;;;;;;5111578;28;20032;-65
2022/09/21 02:11:41;;;;;;;6.40;1.85;;;12.70;74.60;;;;;;5115908;27;20024;-65
2022/09/21 02:14:10;;;;;;;6.75;2.08;;;12.70;74.60;;;;;;5116880;27;20047;-67
2022/09/21 02:16:43;;;;;;;6.53;2.00;;;12.70;74.70;;;;;;5132870;27;20023;-65
2022/09/21 02:19:27;;;;;;;5.70;2.03;;;12.70;74.70;;;;;;5130052;27;20027;-65
2022/09/21 02:22:11;;;;;;;6.63;1.98;;;12.70;74.70;;;;;;5115969;28;20023;-65
2022/09/21 02:24:40;;;;;;;4.80;1.85;;;12.70;74.80;;;;;;5116408;28;20042;-65
2022/09/21 02:27:15;;;;;;;5.65;2.22;;;12.60;74.70;;;;;;5116240;28;20114;-65
2022/09/21 02:29:56;;;;;;;6.95;2.03;;;12.60;74.70;;;;;;5115841;28;20103;-65
2022/09/21 02:32:36;;;;;;;7.03;2.10;;;12.60;74.80;;;;;;5107319;27;20027;-65
2022/09/21 02:35:20;;;;;;;6.43;2.35;;;12.50;74.80;;;;;;5114554;28;20039;-65
2022/09/21 02:37:47;;;;;;;5.93;2.05;;;12.50;74.80;;;;;;5116524;28;20042;-65
2022/09/21 02:40:28;;;;;;;5.45;1.80;;;12.50;74.80;;;;;;5116254;28;20107;-65
2022/09/21 02:43:04;;;;;;;6.50;1.83;;;12.50;74.80;;;;;;5115983;27;20024;-65
2022/09/21 02:45:36;;;;;;;5.88;1.83;;;12.40;74.70;;;;;;5123754;27;20103;-65
2022/09/21 02:48:08;;;;;;;5.55;2.08;;;12.40;74.70;;;;;;5121200;27;20050;-65
2022/09/21 02:50:50;;;;;;;5.72;2.00;;;12.40;74.70;;;;;;5117805;27;20032;-65
2022/09/21 02:53:30;;;;;;;6.55;1.88;;;12.30;74.70;;;;;;5131653;27;20050;-65
2022/09/21 02:56:01;;;;;;;3.85;1.55;;;12.30;74.70;;;;;;5116136;28;20032;-65
2022/09/21 02:58:28;;;;;;;5.47;1.60;;;12.30;74.70;;;;;;5114752;27;20355;-65
2022/09/21 03:00:55;;;;;;;5.35;1.70;;;12.30;74.70;;;;;;5114428;28;20035;-65
2022/09/21 03:03:23;;;;;;;5.88;2.10;;;12.30;74.80;;;;;;5113772;28;20028;-65
2022/09/21 03:05:53;;;;;;;6.00;1.80;;;12.20;74.70;;;;;;5116083;28;20448;-65
2022/09/21 03:08:19;;;;;;;5.55;1.75;;;12.20;74.70;;;;;;5115563;27;20054;-65
2022/09/21 03:10:48;;;;;;;5.35;1.90;;;12.10;74.70;;;;;;5114211;28;20035;-65
2022/09/21 03:13:13;;;;;;;4.88;1.88;;;12.20;74.70;;;;;;5116664;27;20027;-65
2022/09/21 03:15:39;;;;;;;5.10;1.80;;;12.10;74.70;;;;;;5115300;28;20073;-65
2022/09/21 03:18:10;;;;;;;4.75;1.88;;;12.10;74.70;;;;;;5115337;28;20039;-65
2022/09/21 03:20:37;;;;;;;4.88;2.00;;;12.10;74.70;;;;;;5115872;28;20505;-65
2022/09/21 03:23:02;;;;;;;5.22;1.80;;;12.10;74.70;;;;;;5114080;28;20042;-65
2022/09/21 03:25:29;;;;;;;5.55;1.75;;;12.10;74.70;;;;;;5115466;28;20428;-65
2022/09/21 03:27:55;;;;;;;3.97;1.80;;;12.10;74.60;;;;;;5115141;28;20055;-65
2022/09/21 03:30:22;;;;;;;4.80;1.55;;;12.10;74.60;;;;;;5113934;28;20051;-65
2022/09/21 03:32:52;;;;;;;5.60;1.65;;;12.00;74.60;;;;;;5114486;27;20035;-65
2022/09/21 03:35:20;;;;;;;4.82;1.70;;;12.00;74.60;;;;;;5113689;28;20027;-65
2022/09/21 03:37:47;;;;;;;5.55;1.80;;;12.00;74.60;;;;;;5112981;27;20022;-65
2022/09/21 03:40:13;;;;;;;7.65;1.73;;;12.00;74.60;;;;;;5119187;27;20031;-65
2022/09/21 03:42:40;;;;;;;4.60;1.60;;;12.00;74.60;;;;;;5118639;27;20051;-65
2022/09/21 03:45:08;;;;;;;5.03;1.60;;;12.00;74.60;;;;;;5118149;27;20031;-65
2022/09/21 03:47:34;;;;;;;4.40;1.45;;;11.90;74.60;;;;;;5113888;28;20035;-65
2022/09/21 03:50:00;;;;;;;4.57;1.70;;;11.90;74.60;;;;;;5113689;28;20055;-65
2022/09/21 03:52:26;;;;;;;7.30;1.60;;;11.90;74.60;;;;;;5119223;27;20427;-65
2022/09/21 03:54:51;;;;;;;6.57;2.00;;;11.90;74.60;;;;;;5113962;28;20034;-65
2022/09/21 03:57:17;;;;;;;4.80;1.60;;;11.90;74.60;;;;;;5113273;28;20385;-65
2022/09/21 03:59:43;;;;;;;6.55;1.50;;;11.80;74.50;;;;;;5113708;28;20074;-65
2022/09/21 04:02:08;;;;;;;5.13;1.83;;;11.80;74.50;;;;;;5113801;28;20455;-65
2022/09/21 04:04:34;;;;;;;3.60;1.30;;;11.80;74.50;;;;;;5113694;28;20028;-65
2022/09/21 04:07:00;;;;;;;4.93;1.67;;;11.80;74.60;;;;;;5113663;28;20022;-65
2022/09/21 04:09:25;;;;;;;7.68;1.50;;;11.80;74.60;;;;;;5113021;28;20462;-65
2022/09/21 04:11:52;;;;;;;3.97;1.40;;;11.70;74.50;;;;;;5115911;28;20155;-65
2022/09/21 04:14:19;;;;;;;4.72;1.73;;;11.70;74.50;;;;;;5113965;28;20049;-65
2022/09/21 04:16:44;;;;;;;5.93;1.58;;;11.70;74.50;;;;;;5116616;28;20049;-65
2022/09/21 04:19:10;;;;;;;4.85;1.70;;;11.70;74.50;;;;;;5119786;27;20020;-65
2022/09/21 04:21:36;;;;;;;4.38;1.50;;;11.70;74.50;;;;;;5118546;27;20058;-65
2022/09/21 04:24:03;;;;;;;4.55;1.70;;;11.60;74.40;;;;;;5117385;28;20055;-65
2022/09/21 04:26:31;;;;;;;3.97;1.75;;;11.60;74.50;;;;;;5117508;28;20404;-65
2022/09/21 04:28:58;;;;;;;3.85;1.48;;;11.60;74.50;;;;;;5122275;27;20031;-66
2022/09/21 04:31:24;;;;;;;6.45;1.60;;;11.60;75.10;;;;;;5118918;27;20023;-66
2022/09/21 04:33:52;;;;;;;5.40;1.65;;;11.60;74.40;;;;;;5110834;28;20522;-65
2022/09/21 04:36:19;;;;;;;4.53;1.63;;;11.60;74.40;;;;;;5116881;27;20352;-65
2022/09/21 04:38:45;;;;;;;4.70;1.58;;;11.60;74.40;;;;;;5127606;27;20086;-66
2022/09/21 04:41:11;;;;;;;3.17;1.40;;;11.50;74.40;;;;;;5120652;27;20027;-65
2022/09/21 04:43:37;;;;;;;3.55;1.40;;;11.50;74.40;;;;;;5119141;27;20019;-65
2022/09/21 04:46:08;;;;;;;5.03;1.50;;;11.50;74.40;;;;;;5119814;27;20019;-65
2022/09/21 04:48:34;;;;;;;5.70;1.55;;;11.50;74.40;;;;;;5117462;28;20352;-65
2022/09/21 04:51:01;;;;;;;4.53;1.58;;;11.50;74.40;;;;;;5136137;27;20127;-65
2022/09/21 04:53:27;;;;;;;4.70;1.70;;;11.40;74.40;;;;;;5119685;27;20126;-65
2022/09/21 04:55:54;;;;;;;4.35;1.40;;;11.40;74.40;;;;;;5122354;27;20075;-65
2022/09/21 04:58:20;;;;;;;5.20;1.52;;;11.50;74.50;;;;;;5121178;27;20024;-65
2022/09/21 05:00:50;;;;;;;7.13;2.05;;;11.40;74.40;;;;;;5117742;27;20056;-66
2022/09/21 05:03:16;;;;;;;4.00;1.65;;;11.40;74.40;;;;;;5121061;27;20103;-65
2022/09/21 05:05:50;;;;;;;4.97;2.03;;;11.40;74.40;;;;;;5116263;27;20036;-65
2022/09/21 05:08:16;;;;;;;4.85;1.90;;;11.40;74.40;;;;;;5116130;27;20039;-65
2022/09/21 05:10:43;;;;;;;4.75;1.95;;;11.30;74.40;;;;;;5121155;27;20015;-65
2022/09/21 05:13:09;;;;;;;5.40;1.77;;;11.40;74.40;;;;;;5115675;28;20089;-65
2022/09/21 05:15:38;;;;;;;4.43;1.92;;;11.30;74.40;;;;;;5116840;28;20040;-65
2022/09/21 05:18:04;;;;;;;4.15;1.70;;;11.30;74.40;;;;;;5116868;27;20470;-65
2022/09/21 05:20:29;;;;;;;5.43;1.80;;;11.30;74.40;;;;;;5115441;27;20024;-65
2022/09/21 05:23:00;;;;;;;6.85;2.17;;;11.30;74.40;;;;;;5116661;27;20119;-65
2022/09/21 05:25:26;;;;;;;8.05;2.50;;;11.30;74.40;;;;;;5115544;28;20347;-65
2022/09/21 05:27:51;;;;;;;5.47;2.25;;;11.30;74.40;;;;;;5116279;27;20034;-65
2022/09/21 05:30:17;;;;;;;6.47;2.30;;;11.30;74.40;;;;;;5117754;27;20034;-65
2022/09/21 05:33:03;;;;;;;7.75;2.80;;;11.30;74.40;;;;;;5117353;27;20032;-65
2022/09/21 05:35:44;;;;;;;8.00;2.90;;;11.30;74.40;;;;;;5108803;28;20122;-64
2022/09/21 05:38:18;;;;;;;6.00;2.70;;;11.20;74.40;;;;;;5114137;27;20023;-64
2022/09/21 05:40:45;;;;;;;6.40;2.53;;;11.20;74.50;;;;;;5118977;27;20028;-65
2022/09/21 05:43:11;;;;;;;6.85;2.72;;;11.30;74.60;;;;;;5123696;27;20031;-65
2022/09/21 05:45:44;;;;;;;7.43;2.42;;;11.30;74.60;;;;;;5116842;28;20023;-64
2022/09/21 05:48:40;;;;;;;7.05;2.47;;;11.30;74.60;;;;;;5116525;27;20031;-65
2022/09/21 05:51:16;;;;;;;9.68;2.35;;;11.30;74.50;;;;;;5103600;28;20464;-64
2022/09/21 05:54:00;;;;;;;8.05;2.35;;;11.30;74.60;;;;;;5115860;28;20039;-64
2022/09/21 05:56:38;;;;;;;4.45;1.92;;;11.30;74.60;;;;;;5119708;27;20528;-65
2022/09/21 05:59:35;;;;;;;5.55;2.20;;;11.30;74.60;;;;;;5122327;27;20118;-64
2022/09/21 06:02:26;;;;;;;5.53;2.28;;;11.30;74.70;;;;;;5103472;28;20031;-64
2022/09/21 06:04:55;;;;;;;8.57;2.58;;;11.30;74.70;;;;;;5115193;27;20036;-64
2022/09/21 06:07:20;;;;;;;7.22;2.58;;;11.30;74.70;;;;;;5114154;27;20043;-64
2022/09/21 06:09:46;;;;;;;5.55;2.60;;;11.30;75.40;;;;;;5118378;27;20037;-65
2022/09/21 06:12:12;;;;;;;7.82;2.80;;;11.30;74.80;;;;;;5118293;27;20026;-65
2022/09/21 06:14:38;;;;;;;8.00;3.30;;;11.30;74.90;;;;;;5113528;27;20116;-65
2022/09/21 06:17:03;;;;;;;7.32;2.95;;;11.30;74.90;;;;;;5131434;27;20096;-65
2022/09/21 06:19:29;;;;;;;6.05;2.88;;;11.40;75.00;;;;;;5115396;27;20051;-67
2022/09/21 06:21:55;;;;;;;5.82;2.83;;;11.40;75.00;;;;;;5119326;27;20043;-65
2022/09/21 06:24:20;;;;;;;7.65;3.05;;;11.50;75.00;;;;;;5116086;28;20031;-67
2022/09/21 06:26:46;;;;;;;7.65;3.00;;;11.50;75.60;;;;;;5116254;27;20023;-65
2022/09/21 06:29:12;;;;;;;6.03;2.70;;;11.60;75.00;;;;;;5116147;28;20028;-63
2022/09/21 06:31:37;;;;;;;7.70;2.78;;;11.60;74.90;;;;;;5116148;28;20047;-66
2022/09/21 06:34:03;;;;;;;8.50;3.40;;;11.70;74.90;;;;;;5117295;27;20011;-68
2022/09/21 06:36:29;;;;;;;7.50;3.28;;;11.70;75.60;;;;;;5114988;28;20091;-67
2022/09/21 06:38:55;;;;;;;9.73;3.40;;;11.70;75.00;;;;;;5114026;28;20028;-66
2022/09/21 06:41:21;;;;;;;6.75;2.95;;;11.80;75.10;;;;;;5115577;28;20080;-65
2022/09/21 06:43:46;;;;;;;8.30;3.70;;;11.90;75.20;;;;;;5114464;27;20408;-65
2022/09/21 06:46:12;;;;;;;5.78;2.80;;;11.90;75.20;;;;;;5110524;27;20027;-67
2022/09/21 06:48:38;;;;;;;7.20;3.25;;;12.00;75.20;;;;;;5115133;28;20028;-66
2022/09/21 06:51:05;;;;;;;6.78;3.40;;;12.00;75.20;;;;;;5114987;28;20034;-66
2022/09/21 06:53:32;;;;;;;7.53;3.22;;;12.10;75.40;;;;;;5115796;28;20093;-66
2022/09/21 06:56:06;;;;;;;8.90;3.50;;;12.20;75.40;;;;;;5113782;28;20381;-66
2022/09/21 06:58:36;;;;;;;7.85;3.55;;;12.20;75.40;;;;;;5129926;27;20077;-66
2022/09/21 07:01:06;;;;;;;7.93;3.40;;;12.30;75.40;;;;;;5119223;27;20024;-66
2022/09/21 07:03:32;;;;;;;7.63;3.50;;;12.40;75.50;;;;;;5119421;27;20414;-66
2022/09/21 07:05:58;;;;;;;8.23;3.83;;;12.40;75.40;;;;;;5120495;27;20050;-66
2022/09/21 07:08:23;;;;;;;7.20;3.47;;;12.50;75.40;;;;;;5116924;27;20054;-67
2022/09/21 07:10:49;;;;;;;7.53;3.20;;;12.60;75.50;;;;;;5119178;27;20127;-66
2022/09/21 07:13:16;;;;;;;9.38;3.63;;;12.60;75.50;;;;;;5116525;27;20082;-66
2022/09/21 07:15:42;;;;;;;9.68;3.58;;;12.70;75.50;;;;;;5119483;27;20034;-66
2022/09/21 07:18:12;;;;;;;10.05;3.90;;;12.70;75.40;;;;;;5117891;27;20102;-66
2022/09/21 07:20:39;;;;;;;11.82;3.92;;;12.80;75.40;;;;;;5120674;27;20042;-66
2022/09/21 07:23:23;;;;;;;11.18;4.57;;;12.90;75.40;;;;;;5115887;27;20059;-66
2022/09/21 07:25:52;;;;;;;14.77;5.00;;;13.00;75.30;;;;;;5113693;27;20455;-67
2022/09/21 07:28:18;;;;;;;12.07;4.90;;;13.10;75.20;;;;;;5112415;28;20040;-66
2022/09/21 07:30:43;;;;;;;11.30;5.45;;;13.20;75.10;;;;;;5114944;27;20419;-67
2022/09/21 07:33:09;;;;;;;11.85;5.18;;;13.30;74.90;;;;;;5114798;28;20059;-67
2022/09/21 07:35:35;;;;;;;11.75;5.00;;;13.40;74.70;;;;;;5113302;28;20058;-67
2022/09/21 07:38:04;;;;;;;9.93;3.95;;;13.50;74.60;;;;;;5113554;28;20059;-66
2022/09/21 07:40:30;;;;;;;10.90;4.45;;;13.60;75.00;;;;;;5107322;27;20023;-67
2022/09/21 07:43:01;;;;;;;12.32;4.72;;;13.70;74.10;;;;;;5115881;27;20127;-67
2022/09/21 07:45:27;;;;;;;11.65;4.72;;;13.90;74.00;;;;;;5113962;27;20016;-67
2022/09/21 07:47:53;;;;;;;13.30;5.75;;;14.00;73.70;;;;;;5113824;28;20069;-67
2022/09/21 07:50:20;;;;;;;15.40;5.90;;;14.10;73.30;;;;;;5114866;28;20471;-67
2022/09/21 07:52:46;;;;;;;11.23;5.25;;;14.30;73.10;;;;;;5115202;28;20028;-67
2022/09/21 07:55:12;;;;;;;14.52;6.65;;;14.50;72.70;;;;;;5105638;28;20027;-67
2022/09/21 08:00:23;;;;;;;16.27;7.05;;;14.90;71.80;;;;;;5114938;28;20099;-67
2022/09/21 08:02:48;;;;;;;14.40;6.53;;;15.20;71.30;;;;;;5114872;28;20032;-67
2022/09/21 08:05:15;;;;;;;14.18;6.90;;;15.40;70.70;;;;;;5114999;28;20024;-67
2022/09/21 08:07:40;;;;;;;13.57;6.07;;;15.60;70.10;;;;;;5096708;28;20032;-67
2022/09/21 08:10:07;;;;;;;11.25;5.85;;;15.80;69.50;;;;;;5096851;28;20028;-67
2022/09/21 08:12:32;;;;;;;11.52;5.85;;;16.00;69.10;;;;;;5122510;28;20098;-67
2022/09/21 08:14:58;;;;;;;14.07;6.57;;;16.20;68.70;;;;;;5119259;28;20071;-67
2022/09/21 08:17:24;;;;;;;12.10;5.63;;;16.50;68.20;;;;;;5113228;28;20028;-67
2022/09/21 08:19:49;;;;;;;10.90;5.70;;;16.60;67.70;;;;;;5131013;28;20031;-67
2022/09/21 08:22:15;;;;;;;11.23;5.80;;;16.80;67.20;;;;;;5114227;28;20070;-67
2022/09/21 08:24:43;;;;;;;11.35;5.22;;;17.00;66.80;;;;;;5114874;28;20028;-68
2022/09/21 08:27:09;;;;;;;9.55;4.30;;;17.20;66.40;;;;;;5114762;28;20101;-68
2022/09/21 08:29:35;;;;;;;10.07;4.22;;;17.40;65.90;;;;;;5114527;28;20429;-68
2022/09/21 08:32:02;;;;;;;8.88;3.90;;;17.60;65.50;;;;;;5117711;28;20085;-68
2022/09/21 08:34:27;;;;;;;9.88;3.95;;;17.70;65.00;;;;;;5132405;27;20069;-68
2022/09/21 08:36:53;;;;;;;8.75;3.55;;;17.90;64.60;;;;;;5118409;28;20066;-68
2022/09/21 08:39:19;;;;;;;9.77;3.13;;;18.00;64.20;;;;;;5114256;28;20034;-68
2022/09/21 08:42:09;;;;;;;8.88;3.20;;;18.20;63.80;;;;;;5113107;28;20031;-68
2022/09/21 08:44:34;;;;;;;7.10;3.22;;;18.30;63.10;;;;;;5130781;28;20327;-68
2022/09/21 08:47:18;;;;;;;8.75;3.17;;;18.50;63.00;;;;;;5136596;27;20084;-68
2022/09/21 08:49:50;;;;;;;7.80;3.30;;;18.60;62.40;;;;;;5114446;28;20031;-68
2022/09/21 08:52:16;;;;;;;;;;;18.70;62.00;;;;;;5115254;28;20024;-68
2022/09/21 08:54:52;;;;;;;6.53;2.47;;;18.80;62.10;;;;;;5114192;28;20001;-68
2022/09/21 08:57:19;;;;;;;7.60;2.38;;;18.90;61.50;;;;;;5130341;28;20027;-68
2022/09/21 08:59:47;;;;;;;7.45;2.92;;;19.10;61.30;;;;;;5130526;28;20020;-68
2022/09/21 09:02:59;;;;;;;7.25;2.60;;;19.20;61.00;;;;;;5116684;28;20030;-68
2022/09/21 09:05:38;;;;;;;7.68;2.70;;;19.30;60.40;;;;;;5104955;28;20023;-68
2022/09/21 09:08:39;;;;;;;8.70;2.45;;;19.30;60.40;;;;;;5126437;27;20059;-68
2022/09/21 09:11:22;;;;;;;6.78;2.45;;;19.40;60.00;;;;;;5134058;27;20046;-68
2022/09/21 09:14:01;;;;;;;7.13;2.75;;;19.50;60.00;;;;;;5133295;27;20039;-68
2022/09/21 09:16:54;;;;;;;7.55;2.75;;;19.50;59.70;;;;;;5117012;28;20124;-68
2022/09/21 09:19:45;;;;;;;8.02;2.80;;;19.60;59.40;;;;;;5115052;28;20466;-68
2022/09/21 09:22:18;;;;;;;6.70;2.45;;;19.70;59.20;;;;;;5117186;27;20115;-69
2022/09/21 09:24:49;;;;;;;7.88;2.50;;;19.80;59.20;;;;;;5116625;28;20035;-68
2022/09/21 09:27:21;;;;;;;5.93;2.22;;;19.80;58.90;;;;;;5115549;28;20078;-68
2022/09/21 09:29:57;;;;;;;10.38;3.13;;;19.90;58.80;;;;;;5116540;28;20028;-67
2022/09/21 09:32:40;;;;;;;7.18;2.25;;;20.00;58.50;;;;;;5117014;28;20054;-68
2022/09/21 09:35:24;;;;;;;6.97;2.55;;;20.00;58.20;;;;;;5114111;28;20099;-67
2022/09/21 09:37:50;;;;;;;9.73;2.25;;;20.00;57.80;;;;;;5113168;28;20032;-68
2022/09/21 09:40:39;;;;;;;5.65;2.08;;;20.10;57.90;;;;;;5112818;28;20131;-68
2022/09/21 09:43:21;;;;;;;6.35;2.05;;;20.10;57.80;;;;;;5129359;27;20376;-68
2022/09/21 09:45:47;;;;;;;6.85;2.30;;;20.20;57.80;;;;;;5111847;28;20031;-68
2022/09/21 09:48:25;;;;;;;6.05;2.28;;;20.30;57.70;;;;;;5113113;28;20111;-67
2022/09/21 09:50:51;;;;;;;9.90;2.60;;;20.40;57.40;;;;;;5114839;28;20347;-68
2022/09/21 09:53:21;;;;;;;7.10;2.33;;;20.50;57.20;;;;;;5115377;28;20687;-68
2022/09/21 09:55:53;;;;;;;7.65;2.08;;;20.50;56.80;;;;;;5115468;28;20032;-68
2022/09/21 09:58:22;;;;;;;5.47;1.70;;;20.60;56.20;;;;;;5114647;28;20160;-69
2022/09/21 10:00:52;;;;;;;4.15;1.63;;;20.70;55.80;;;;;;5132062;27;20059;-69
2022/09/21 10:03:20;;;;;;;5.00;1.63;;;20.80;55.30;;;;;;5115385;28;20440;-68
2022/09/21 10:05:47;;;;;;;6.15;1.90;;;20.80;55.00;;;;;;5115176;28;20059;-69
2022/09/21 10:08:46;;;;;;;9.43;1.70;;;20.90;54.80;;;;;;5115123;27;20048;-68
2022/09/21 10:11:14;;;;;;;4.63;1.73;;;21.00;54.50;;;;;;5065680;28;20040;-68
2022/09/21 10:13:45;;;;;;;6.63;1.90;;;20.80;54.50;;;;;;5114588;28;20050;-68
2022/09/21 10:16:19;;;;;;;8.13;2.10;;;20.70;54.50;;;;;;5124147;27;20023;-68
2022/09/21 10:18:44;;;;;;;7.22;1.77;;;20.80;54.20;;;;;;5115570;27;20096;-68
2022/09/21 10:21:21;;;;;;;7.05;1.73;;;20.80;54.10;;;;;;5116244;28;20020;-67
2022/09/21 10:23:52;;;;;;;3.83;1.77;;;20.90;54.10;;;;;;5116019;28;20112;-68
2022/09/21 10:26:20;;;;;;;5.88;1.50;;;21.00;53.30;;;;;;5110656;27;20024;-68
2022/09/21 10:29:00;;;;;;;4.63;1.17;;;21.10;53.20;;;;;;5114873;28;20087;-68
2022/09/21 10:31:28;;;;;;;8.83;1.77;;;21.10;52.50;;;;;;5102850;28;20027;-68
2022/09/21 10:34:13;;;;;;;5.93;1.42;;;21.20;52.70;;;;;;5131969;27;20466;-68
2022/09/21 10:36:39;;;;;;;7.50;1.35;;;21.20;52.30;;;;;;5129681;27;20478;-68
2022/09/21 10:39:30;;;;;;;5.18;1.48;;;21.30;52.70;;;;;;5121971;27;20038;-68
2022/09/21 10:42:01;;;;;;;6.88;1.60;;;21.30;52.10;;;;;;5125572;27;20447;-68
2022/09/21 10:45:15;;;;;;;5.63;1.73;;;21.30;51.80;;;;;;5117356;27;20118;-67
2022/09/21 10:47:46;;;;;;;6.07;1.45;;;21.40;51.70;;;;;;5113534;27;20071;-67
2022/09/21 10:50:38;;;;;;;5.68;1.20;;;21.40;51.80;;;;;;5120530;27;20081;-67
2022/09/21 10:53:18;;;;;;;4.07;1.33;;;21.40;51.50;;;;;;5118960;27;20031;-68
2022/09/21 10:56:04;;;;;;;3.70;1.38;;;21.50;50.90;;;;;;5119329;27;20035;-67
2022/09/21 10:58:31;;;;;;;5.75;1.30;;;21.60;50.80;;;;;;5118189;27;20035;-67
2022/09/21 11:01:27;;;;;;;3.40;1.02;;;21.60;50.70;;;;;;5118446;27;20031;-67
2022/09/21 11:04:04;;;;;;;3.28;0.95;;;21.70;50.30;;;;;;5120109;27;20023;-68
2022/09/21 11:06:36;;;;;;;2.83;0.90;;;21.70;50.00;;;;;;5117427;27;20028;-68
2022/09/21 11:09:19;;;;;;;4.40;1.40;;;21.80;49.60;;;;;;5118462;27;20031;-68
2022/09/21 11:12:06;;;;;;;7.72;1.25;;;21.80;48.80;;;;;;5127848;27;20040;-68
2022/09/21 11:14:38;;;;;;;1.92;0.85;;;21.90;48.60;;;;;;5117909;27;20051;-68
2022/09/21 11:17:12;;;;;;;3.92;1.17;;;22.00;48.70;;;;;;5132726;27;20033;-68
2022/09/21 11:19:50;;;;;;;10.50;2.13;;;22.00;48.90;;;;;;5114714;28;20105;-68
2022/09/21 11:22:31;;;;;;;3.25;0.98;;;21.90;48.80;;;;;;5114741;28;20038;-68
2022/09/21 11:25:19;;;;;;;4.03;0.90;;;21.90;48.60;;;;;;5098412;27;20039;-62
2022/09/21 11:27:51;;;;;;;4.85;1.10;;;22.00;48.40;;;;;;5098557;28;20031;-62
2022/09/21 11:30:18;;;;;;;3.38;0.88;;;22.00;48.10;;;;;;5098493;28;20025;-62
2022/09/21 11:33:22;;;;;;;3.08;1.00;;;22.10;47.90;;;;;;5115106;27;20043;-62
2022/09/21 11:36:06;;;;;;;4.82;1.50;;;22.00;47.30;;;;;;5096863;28;20432;-62
2022/09/21 11:38:57;;;;;;;6.30;1.50;;;21.70;47.70;;;;;;5094168;28;20468;-63
2022/09/21 11:41:44;;;;;;;7.17;1.53;;;21.60;48.00;;;;;;5110624;28;20052;-64
2022/09/21 11:44:31;;;;;;;4.68;1.10;;;21.50;48.00;;;;;;5094364;28;20605;-63
2022/09/21 11:47:31;;;;;;;6.95;1.40;;;21.20;48.20;;;;;;5102298;27;20077;-63
2022/09/21 11:49:57;;;;;;;8.27;1.60;;;20.90;48.70;;;;;;5114010;28;20107;-63
2022/09/21 11:52:37;;;;;;;5.88;1.33;;;20.60;49.00;;;;;;5097508;28;20106;-63
2022/09/21 11:55:20;;;;;;;3.60;0.95;;;20.50;48.80;;;;;;5097674;28;20028;-63
2022/09/21 11:57:52;;;;;;;4.55;1.35;;;20.60;48.80;;;;;;5104241;28;20041;-63
2022/09/21 12:00:21;;;;;;;;;;;20.60;48.70;;;;;;5105238;28;20038;-64
2022/09/21 12:03:20;;;;;;;3.28;0.98;;;20.40;48.60;;;;;;5103630;28;20292;-63
2022/09/21 12:05:55;;;;;;;4.40;1.13;;;20.20;48.40;;;;;;5118853;28;20038;-63
2022/09/21 12:08:39;;;;;;;4.10;0.95;;;20.00;48.80;;;;;;5116418;28;20073;-64
2022/09/21 12:11:38;;;;;;;4.32;1.17;;;19.80;48.90;;;;;;5094190;28;20451;-63
2022/09/21 12:14:21;;;;;;;3.97;1.30;;;19.90;48.80;;;;;;5101293;28;20052;-64
2022/09/21 12:17:12;;;;;;;3.00;1.00;;;20.10;48.80;;;;;;5114525;27;20036;-63
2022/09/21 12:19:47;;;;;;;3.88;1.05;;;20.30;48.80;;;;;;5093683;28;20032;-64
2022/09/21 12:22:21;;;;;;;4.43;0.90;;;20.40;48.90;;;;;;5097485;28;20031;-64
2022/09/21 12:24:51;;;;;;;4.47;1.15;;;20.60;48.90;;;;;;5104906;28;20032;-63
2022/09/21 12:27:31;;;;;;;2.42;0.80;;;20.60;48.80;;;;;;5114196;28;20725;-61
2022/09/21 12:30:03;;;;;;;4.43;1.33;;;20.70;48.70;;;;;;5117618;28;20381;-65
2022/09/21 12:32:46;;;;;;;3.33;0.90;;;20.70;48.70;;;;;;5115765;27;20035;-63
2022/09/21 12:35:29;;;;;;;2.60;0.85;;;20.70;48.70;;;;;;5111706;28;20445;-62
2022/09/21 12:38:21;;;;;;;3.45;0.95;;;20.80;48.70;;;;;;5116135;27;20298;-63
2022/09/21 12:41:17;;;;;;;4.75;0.90;;;20.80;48.40;;;;;;5110939;28;20046;-61
2022/09/21 12:44:00;;;;;;;2.45;0.65;;;20.80;48.20;;;;;;5102836;28;20054;-61
2022/09/21 12:46:35;;;;;;;3.97;1.02;;;20.70;48.40;;;;;;5117477;27;20031;-61
2022/09/21 12:49:25;;;;;;;2.60;0.65;;;20.60;48.50;;;;;;5116498;27;20032;-62
2022/09/21 12:51:55;;;;;;;5.32;1.08;;;20.40;48.60;;;;;;5114845;27;20035;-62
2022/09/21 12:54:37;;;;;;;3.53;0.85;;;20.20;48.90;;;;;;5117055;27;20032;-62
2022/09/21 12:57:32;;;;;;;5.20;1.05;;;20.10;49.00;;;;;;5116289;28;20028;-62
2022/09/21 13:00:09;;;;;;;2.83;0.60;;;20.00;48.90;;;;;;5115764;28;20027;-61
2022/09/21 13:03:12;;;;;;;2.38;0.80;;;19.90;49.00;;;;;;5116048;28;20051;-62
2022/09/21 13:06:08;;;;;;;3.78;0.95;;;19.90;49.00;;;;;;5115746;28;20039;-62
2022/09/21 13:08:43;;;;;;;4.40;1.13;;;19.90;48.80;;;;;;5127399;27;20058;-69
2022/09/21 13:11:09;;;;;;;5.13;0.90;;;19.70;48.90;;;;;;5115459;28;20020;-68
2022/09/21 13:13:50;;;;;;;2.80;0.68;;;19.70;49.20;;;;;;5133702;27;20042;-68
2022/09/21 13:16:30;;;;;;;4.88;1.10;;;19.60;49.40;;;;;;5091583;28;20031;-72
2022/09/21 13:19:01;;;;;;;2.63;0.90;;;19.50;49.20;;;;;;5116203;28;20023;-70